Time;durP1;ratioP1;P1;durP2;ratioP2;P2;SDS_P1;SDS_P2;PMS_P1;PMS_P2;Temp;Humidity;BMP_temperature;BMP_pressure;BME280_temperature;BME280_humidity;BME280_pressure;Samples;Min_cycle;Max_cycle;Signal;HPM_P1;HPM_P2
2024/01/31 00:00:30;;;;;;;5.17;1.10;;;6.10;99.90;;;;;;5014699;28;20193;-66
2024/01/31 00:02:57;;;;;;;1.70;0.67;;;6.10;99.90;;;;;;5016267;28;20201;-65
2024/01/31 00:05:24;;;;;;;4.13;0.90;;;6.00;99.90;;;;;;5023278;28;20203;-66
2024/01/31 00:07:52;;;;;;;1.23;0.73;;;6.00;99.90;;;;;;5022784;28;22499;-66
2024/01/31 00:10:19;;;;;;;5.20;0.67;;;6.00;99.90;;;;;;5037729;28;20934;-66
2024/01/31 00:12:46;;;;;;;7.23;1.00;;;6.00;99.90;;;;;;5010018;28;20893;-65
2024/01/31 00:15:16;;;;;;;6.00;1.00;;;6.10;99.90;;;;;;5037698;28;20197;-66
2024/01/31 00:17:43;;;;;;;4.40;1.10;;;6.10;99.90;;;;;;4997311;28;20425;-65
2024/01/31 00:20:11;;;;;;;1.73;0.60;;;6.00;99.90;;;;;;5041977;28;20208;-65
2024/01/31 00:22:38;;;;;;;2.87;0.90;;;6.00;99.90;;;;;;4997061;28;20205;-66
2024/01/31 00:25:08;;;;;;;2.70;0.90;;;6.00;99.90;;;;;;5030413;28;20204;-65
2024/01/31 00:27:34;;;;;;;2.43;0.50;;;6.10;99.90;;;;;;5011379;28;20717;-66
2024/01/31 00:30:01;;;;;;;4.53;0.70;;;6.00;99.90;;;;;;5039912;28;20509;-66
2024/01/31 00:32:28;;;;;;;3.57;0.93;;;6.00;99.90;;;;;;5006435;28;20623;-66
2024/01/31 00:34:55;;;;;;;3.33;0.60;;;6.00;99.90;;;;;;5022556;28;20211;-66
2024/01/31 00:37:22;;;;;;;4.63;0.77;;;6.00;99.90;;;;;;5016323;28;20227;-66
2024/01/31 00:39:48;;;;;;;3.37;0.83;;;6.30;99.90;;;;;;5032320;28;20541;-66
2024/01/31 00:42:17;;;;;;;1.23;0.50;;;6.10;99.90;;;;;;5023126;28;20632;-66
2024/01/31 00:44:43;;;;;;;2.40;0.80;;;5.80;99.90;;;;;;5028549;28;20306;-66
2024/01/31 00:47:09;;;;;;;8.10;1.27;;;6.10;99.90;;;;;;4999073;28;20585;-65
2024/01/31 00:49:36;;;;;;;3.00;0.77;;;6.00;99.90;;;;;;5022803;28;20204;-65
2024/01/31 00:52:03;;;;;;;3.97;1.00;;;6.00;99.90;;;;;;5017700;28;20233;-66
2024/01/31 00:54:30;;;;;;;3.47;0.70;;;6.00;99.90;;;;;;5007370;28;20393;-65
2024/01/31 00:56:57;;;;;;;5.67;1.10;;;6.00;99.90;;;;;;4999908;28;20237;-66
2024/01/31 00:59:25;;;;;;;1.77;0.90;;;6.00;99.90;;;;;;5002350;28;20323;-66
2024/01/31 01:01:53;;;;;;;1.87;0.80;;;5.90;99.90;;;;;;4977510;28;20893;-65
2024/01/31 01:04:19;;;;;;;4.60;0.63;;;6.00;99.90;;;;;;4999676;28;20277;-65
2024/01/31 01:06:46;;;;;;;5.67;0.93;;;6.30;99.90;;;;;;5002991;28;20733;-66
2024/01/31 01:09:13;;;;;;;4.77;0.83;;;5.80;99.90;;;;;;5004671;28;20773;-66
2024/01/31 01:11:40;;;;;;;2.57;0.90;;;5.90;99.90;;;;;;5005179;28;20206;-65
2024/01/31 01:14:07;;;;;;;4.27;0.80;;;5.90;99.90;;;;;;5005802;28;20498;-65
2024/01/31 01:16:35;;;;;;;0.60;0.50;;;5.90;99.90;;;;;;5012775;28;20236;-65
2024/01/31 01:19:04;;;;;;;2.20;0.80;;;5.90;99.90;;;;;;4982684;28;20228;-66
2024/01/31 01:21:31;;;;;;;2.20;0.83;;;5.90;99.90;;;;;;5007730;28;20859;-66
2024/01/31 01:23:58;;;;;;;1.80;0.70;;;5.90;99.90;;;;;;5007404;28;20211;-66
2024/01/31 01:26:25;;;;;;;3.30;1.33;;;5.90;99.90;;;;;;5015285;28;20418;-66
2024/01/31 01:28:52;;;;;;;1.37;0.57;;;5.90;99.90;;;;;;5004595;28;20231;-66
2024/01/31 01:31:19;;;;;;;5.50;0.80;;;5.90;99.90;;;;;;5004273;28;21063;-65
2024/01/31 01:33:47;;;;;;;2.77;0.63;;;5.80;99.90;;;;;;4983376;28;20237;-66
2024/01/31 01:36:16;;;;;;;3.50;0.90;;;5.70;99.90;;;;;;4989659;28;20236;-66
2024/01/31 01:38:42;;;;;;;1.13;0.80;;;5.70;99.90;;;;;;5009171;28;20204;-65
2024/01/31 01:41:09;;;;;;;5.03;1.00;;;5.70;99.90;;;;;;5011932;28;20815;-66
2024/01/31 01:43:36;;;;;;;5.70;0.87;;;5.70;99.90;;;;;;5002421;28;20775;-66
2024/01/31 01:46:10;;;;;;;2.30;0.70;;;5.60;99.90;;;;;;5003380;28;20311;-65
2024/01/31 01:48:38;;;;;;;1.07;0.60;;;5.60;99.90;;;;;;4982444;28;20214;-65
2024/01/31 01:51:07;;;;;;;6.47;1.27;;;5.60;99.90;;;;;;5004249;28;20318;-65
2024/01/31 01:53:35;;;;;;;3.20;0.93;;;5.60;99.90;;;;;;5024906;28;20809;-65
2024/01/31 01:56:03;;;;;;;1.60;0.83;;;5.60;99.90;;;;;;5032444;28;20188;-65
2024/01/31 01:58:31;;;;;;;6.27;0.83;;;5.60;99.90;;;;;;5024590;28;20201;-65
2024/01/31 02:01:00;;;;;;;2.83;0.70;;;5.70;99.90;;;;;;5009449;28;20225;-65
2024/01/31 02:03:29;;;;;;;1.73;0.80;;;5.60;99.90;;;;;;5042252;28;20200;-66
2024/01/31 02:05:58;;;;;;;3.23;1.27;;;1.80;99.90;;;;;;4987978;28;20509;-65
2024/01/31 02:08:27;;;;;;;0.93;0.60;;;5.60;99.90;;;;;;5025513;28;20207;-65
2024/01/31 02:10:54;;;;;;;5.57;1.30;;;5.70;99.90;;;;;;5035527;28;20522;-65
2024/01/31 02:13:21;;;;;;;4.47;0.90;;;5.70;99.90;;;;;;5032643;28;20208;-65
2024/01/31 02:15:52;;;;;;;2.73;0.57;;;6.20;99.90;;;;;;5011014;28;20709;-66
2024/01/31 02:18:19;;;;;;;2.90;1.07;;;5.70;99.90;;;;;;5037958;28;20647;-65
2024/01/31 02:20:46;;;;;;;3.20;0.73;;;5.60;99.90;;;;;;4990768;28;20209;-65
2024/01/31 02:23:15;;;;;;;9.90;1.10;;;5.60;99.90;;;;;;5039665;28;20218;-65
2024/01/31 02:25:42;;;;;;;3.23;1.00;;;5.50;99.90;;;;;;5024681;28;20480;-66
2024/01/31 02:28:09;;;;;;;4.53;0.83;;;5.60;99.90;;;;;;5026642;28;20702;-65
2024/01/31 02:30:36;;;;;;;1.17;0.60;;;5.50;99.90;;;;;;5021226;28;20235;-66
2024/01/31 02:33:02;;;;;;;1.83;0.87;;;5.50;99.90;;;;;;5025993;28;20204;-66
2024/01/31 02:35:31;;;;;;;2.53;0.87;;;5.60;99.90;;;;;;5002252;28;20696;-66
2024/01/31 02:37:58;;;;;;;1.47;0.60;;;5.50;99.90;;;;;;5018790;28;20228;-65
2024/01/31 02:40:28;;;;;;;1.50;0.80;;;5.60;99.90;;;;;;5024691;28;20286;-65
2024/01/31 02:42:55;;;;;;;5.30;0.90;;;5.60;99.90;;;;;;5032391;28;20341;-65
2024/01/31 02:45:22;;;;;;;1.00;0.60;;;5.50;99.90;;;;;;5015646;28;20971;-66
2024/01/31 02:47:49;;;;;;;4.70;1.10;;;5.60;99.90;;;;;;5024218;28;20205;-65
2024/01/31 02:50:16;;;;;;;2.03;0.80;;;5.60;99.90;;;;;;5003107;28;20824;-66
2024/01/31 02:52:43;;;;;;;2.23;0.67;;;5.60;99.90;;;;;;5032589;28;20234;-65
2024/01/31 02:55:10;;;;;;;3.80;0.90;;;;;;;;;;5027091;28;20197;-66
2024/01/31 02:57:38;;;;;;;2.00;0.47;;;5.60;99.90;;;;;;5039579;28;20221;-65
2024/01/31 03:00:09;;;;;;;1.07;0.43;;;5.60;99.90;;;;;;5015147;28;20204;-66
2024/01/31 03:02:35;;;;;;;1.33;0.70;;;5.60;99.90;;;;;;5025520;28;20230;-66
2024/01/31 03:05:02;;;;;;;3.90;1.07;;;6.80;99.90;;;;;;5018700;28;20836;-66
2024/01/31 03:07:29;;;;;;;0.37;0.37;;;5.60;99.90;;;;;;5015751;28;20585;-66
2024/01/31 03:09:56;;;;;;;2.23;0.83;;;5.70;99.90;;;;;;5034203;28;20825;-65
2024/01/31 03:12:23;;;;;;;3.53;1.07;;;5.70;99.90;;;;;;5024639;28;21652;-65
2024/01/31 03:14:51;;;;;;;3.03;0.70;;;5.70;99.90;;;;;;5023761;28;20204;-65
2024/01/31 03:17:18;;;;;;;3.60;0.80;;;5.60;99.90;;;;;;5014904;28;20241;-65
2024/01/31 03:19:45;;;;;;;1.67;0.67;;;5.70;99.90;;;;;;5032076;28;20306;-65
2024/01/31 03:22:12;;;;;;;4.70;1.20;;;5.70;99.90;;;;;;4996868;28;20212;-65
2024/01/31 03:24:39;;;;;;;2.30;1.20;;;5.70;99.90;;;;;;5033280;28;20304;-65
2024/01/31 03:27:06;;;;;;;6.03;1.70;;;6.00;99.90;;;;;;5024717;28;20204;-66
2024/01/31 03:29:33;;;;;;;2.17;1.00;;;5.80;99.90;;;;;;5031484;28;20195;-65
2024/01/31 03:32:02;;;;;;;2.93;0.60;;;5.80;99.90;;;;;;5018493;28;20196;-66
2024/01/31 03:34:29;;;;;;;3.20;0.83;;;5.70;99.90;;;;;;5035028;28;20559;-66
2024/01/31 03:36:56;;;;;;;5.40;1.27;;;5.70;99.90;;;;;;4986895;28;21991;-66
2024/01/31 03:39:23;;;;;;;4.03;1.17;;;5.70;99.90;;;;;;5032329;28;20315;-66
2024/01/31 03:41:50;;;;;;;9.73;1.40;;;5.70;99.90;;;;;;5021471;28;20524;-66
2024/01/31 03:44:17;;;;;;;6.00;1.13;;;;;;;;;;5036566;28;20734;-65
2024/01/31 03:46:44;;;;;;;2.93;1.00;;;5.60;99.90;;;;;;5017224;28;21471;-65
2024/01/31 03:49:12;;;;;;;10.73;1.40;;;5.70;99.90;;;;;;5040586;28;20682;-65
2024/01/31 03:51:39;;;;;;;6.23;1.30;;;5.60;99.90;;;;;;5000534;28;20388;-65
2024/01/31 03:54:06;;;;;;;5.90;0.80;;;5.50;99.90;;;;;;5037448;28;20670;-65
2024/01/31 03:56:33;;;;;;;7.60;1.40;;;4.80;99.90;;;;;;5032666;28;20603;-65
2024/01/31 03:59:00;;;;;;;4.07;1.13;;;5.60;99.90;;;;;;5015717;28;20454;-65
2024/01/31 04:01:27;;;;;;;4.33;1.30;;;5.60;99.90;;;;;;5026686;28;20200;-65
2024/01/31 04:03:53;;;;;;;3.13;1.03;;;5.60;99.90;;;;;;5024304;28;20204;-65
2024/01/31 04:06:22;;;;;;;3.93;1.20;;;5.70;99.90;;;;;;5035773;28;24459;-65
2024/01/31 04:08:49;;;;;;;3.73;1.07;;;5.70;99.90;;;;;;4996157;28;20213;-66
2024/01/31 04:11:16;;;;;;;2.80;1.17;;;5.70;99.90;;;;;;5038737;28;20201;-65
2024/01/31 04:13:44;;;;;;;4.87;1.03;;;5.70;99.90;;;;;;5025644;28;20200;-65
2024/01/31 04:16:15;;;;;;;1.40;0.80;;;5.70;99.90;;;;;;5027725;28;20759;-65
2024/01/31 04:18:42;;;;;;;5.43;1.33;;;5.70;99.90;;;;;;5023530;28;20490;-65
2024/01/31 04:21:09;;;;;;;2.03;0.73;;;5.70;99.90;;;;;;5035087;28;20229;-65
2024/01/31 04:23:37;;;;;;;2.60;0.73;;;5.70;99.90;;;;;;5009322;28;20205;-66
2024/01/31 04:26:04;;;;;;;2.37;0.80;;;5.70;99.90;;;;;;5035138;28;20402;-65
2024/01/31 04:28:31;;;;;;;4.13;1.10;;;5.60;99.90;;;;;;5027278;28;20200;-66
2024/01/31 04:30:58;;;;;;;6.93;1.00;;;5.70;99.90;;;;;;5028309;28;20399;-65
2024/01/31 04:33:25;;;;;;;4.53;1.33;;;5.70;99.90;;;;;;5014787;28;20204;-66
2024/01/31 04:35:52;;;;;;;5.70;1.10;;;5.70;99.90;;;;;;5029908;28;20201;-65
2024/01/31 04:38:19;;;;;;;5.40;0.73;;;5.60;99.90;;;;;;5006041;28;20228;-66
2024/01/31 04:40:47;;;;;;;5.07;1.50;;;5.60;99.90;;;;;;5032574;28;20300;-65
2024/01/31 04:43:16;;;;;;;4.30;0.90;;;5.60;99.90;;;;;;5023021;28;20205;-65
2024/01/31 04:45:44;;;;;;;5.50;1.00;;;5.70;99.90;;;;;;5034474;28;20614;-65
2024/01/31 04:48:11;;;;;;;2.83;0.63;;;5.60;99.90;;;;;;5021198;28;21256;-65
2024/01/31 04:50:38;;;;;;;4.43;1.30;;;5.70;99.90;;;;;;5032923;28;20200;-65
2024/01/31 04:53:05;;;;;;;3.50;0.70;;;5.70;99.90;;;;;;5037625;28;20842;-65
2024/01/31 04:55:32;;;;;;;7.80;1.00;;;5.70;99.90;;;;;;5006946;28;20206;-65
2024/01/31 04:58:00;;;;;;;5.03;0.93;;;5.70;99.90;;;;;;5038994;28;20228;-65
2024/01/31 05:00:28;;;;;;;2.17;0.70;;;5.70;99.90;;;;;;5024135;28;20198;-66
2024/01/31 05:02:54;;;;;;;1.93;0.97;;;5.70;99.90;;;;;;5023547;28;20265;-65
2024/01/31 05:05:21;;;;;;;3.43;1.03;;;5.70;99.90;;;;;;5017830;28;20437;-65
2024/01/31 05:07:48;;;;;;;6.53;1.03;;;5.70;99.90;;;;;;5020852;28;20220;-65
2024/01/31 05:10:15;;;;;;;7.47;1.27;;;5.60;99.90;;;;;;4995366;28;20244;-65
2024/01/31 05:12:42;;;;;;;1.20;0.70;;;5.60;99.90;;;;;;5040691;28;20193;-66
2024/01/31 05:15:10;;;;;;;5.80;1.07;;;5.60;99.90;;;;;;5020870;28;20204;-65
2024/01/31 05:17:37;;;;;;;5.67;0.70;;;5.60;99.90;;;;;;5039072;28;20223;-65
2024/01/31 05:20:05;;;;;;;5.30;0.70;;;5.60;99.90;;;;;;5020925;28;20197;-65
2024/01/31 05:22:32;;;;;;;3.80;1.10;;;5.70;99.90;;;;;;5036153;28;20201;-65
2024/01/31 05:24:59;;;;;;;7.37;1.37;;;5.60;99.90;;;;;;5008941;28;20208;-65
2024/01/31 05:27:26;;;;;;;1.73;0.80;;;5.40;99.90;;;;;;5040948;28;20293;-65
2024/01/31 05:29:53;;;;;;;1.27;0.70;;;5.60;99.90;;;;;;5027794;28;20201;-65
2024/01/31 05:32:21;;;;;;;4.67;1.00;;;5.60;99.90;;;;;;5035228;28;20394;-65
2024/01/31 05:34:48;;;;;;;2.53;0.90;;;5.70;99.90;;;;;;5026137;28;20205;-66
2024/01/31 05:37:15;;;;;;;3.70;1.10;;;5.60;99.90;;;;;;5025369;28;20477;-65
2024/01/31 05:39:42;;;;;;;1.70;0.60;;;5.90;99.90;;;;;;5030517;28;20204;-65
2024/01/31 05:42:09;;;;;;;4.20;1.20;;;5.50;99.90;;;;;;5002190;28;20224;-65
2024/01/31 05:44:36;;;;;;;6.27;1.40;;;5.50;99.90;;;;;;5023022;28;20213;-65
2024/01/31 05:47:03;;;;;;;4.47;0.97;;;5.50;99.90;;;;;;5034839;28;20381;-66
2024/01/31 05:49:31;;;;;;;3.33;0.97;;;5.50;99.90;;;;;;5020526;28;20218;-65
2024/01/31 05:51:58;;;;;;;3.27;0.87;;;5.50;99.90;;;;;;5021460;28;20243;-65
2024/01/31 05:54:25;;;;;;;3.03;1.00;;;5.50;99.90;;;;;;5027061;28;20217;-65
2024/01/31 05:56:52;;;;;;;4.10;0.97;;;5.50;99.90;;;;;;5002000;28;20488;-65
2024/01/31 05:59:19;;;;;;;3.47;0.50;;;5.50;99.90;;;;;;5030064;28;20229;-65
2024/01/31 06:01:46;;;;;;;1.50;0.80;;;5.50;99.90;;;;;;5023394;28;20237;-65
2024/01/31 06:04:13;;;;;;;6.30;1.23;;;5.50;99.90;;;;;;5027449;28;20240;-64
2024/01/31 06:06:42;;;;;;;1.60;0.87;;;5.60;99.90;;;;;;5022358;28;20232;-65
2024/01/31 06:09:12;;;;;;;3.13;0.70;;;5.60;99.90;;;;;;5034498;28;20483;-65
2024/01/31 06:11:39;;;;;;;2.87;0.83;;;5.50;99.90;;;;;;4999741;28;20460;-65
2024/01/31 06:14:06;;;;;;;4.30;0.93;;;5.50;99.90;;;;;;5036704;28;20808;-65
2024/01/31 06:16:33;;;;;;;5.93;1.03;;;5.50;99.90;;;;;;5023717;28;20235;-65
2024/01/31 06:19:00;;;;;;;5.10;1.03;;;5.50;99.90;;;;;;5014736;28;20737;-65
2024/01/31 06:21:27;;;;;;;1.77;0.83;;;5.40;99.90;;;;;;5033540;28;20200;-65
2024/01/31 06:23:55;;;;;;;5.40;1.47;;;5.40;99.90;;;;;;5012195;28;21078;-65
2024/01/31 06:26:22;;;;;;;3.73;1.10;;;5.50;99.90;;;;;;5000525;28;20216;-65
2024/01/31 06:28:49;;;;;;;2.00;0.97;;;5.40;99.90;;;;;;5038412;28;20193;-65
2024/01/31 06:31:24;;;;;;;4.63;1.03;;;5.50;99.90;;;;;;5027909;28;20204;-65
2024/01/31 06:33:51;;;;;;;4.60;1.23;;;5.40;99.90;;;;;;5036382;28;20395;-65
2024/01/31 06:36:19;;;;;;;4.03;0.90;;;5.40;99.90;;;;;;5030528;28;20993;-66
2024/01/31 06:38:46;;;;;;;2.77;0.83;;;5.40;99.90;;;;;;5022343;28;20545;-65
2024/01/31 06:41:15;;;;;;;3.30;0.87;;;5.40;99.90;;;;;;4995981;28;20220;-66
2024/01/31 06:43:42;;;;;;;2.30;0.80;;;5.40;99.90;;;;;;5035971;28;20502;-65
2024/01/31 06:46:09;;;;;;;2.57;0.90;;;5.50;99.90;;;;;;5024873;28;20205;-65
2024/01/31 06:48:36;;;;;;;3.47;1.00;;;5.50;99.90;;;;;;5032418;28;20197;-66
2024/01/31 06:51:03;;;;;;;3.73;1.20;;;5.50;99.90;;;;;;5037607;28;20200;-65
2024/01/31 06:53:31;;;;;;;7.33;1.47;;;5.50;99.90;;;;;;5027808;28;20258;-66
2024/01/31 06:55:59;;;;;;;1.50;0.90;;;5.40;99.90;;;;;;5026490;28;20890;-66
2024/01/31 06:58:27;;;;;;;2.43;0.67;;;5.50;99.90;;;;;;5009804;28;20946;-66
2024/01/31 07:00:57;;;;;;;2.53;1.10;;;5.50;99.90;;;;;;5028418;28;20212;-66
2024/01/31 07:03:24;;;;;;;1.17;0.97;;;5.40;99.90;;;;;;5041206;28;20208;-66
2024/01/31 07:05:51;;;;;;;2.20;0.90;;;4.10;99.90;;;;;;5038047;28;20211;-66
2024/01/31 07:08:18;;;;;;;3.50;0.90;;;5.40;99.90;;;;;;5038836;28;20198;-66
2024/01/31 07:10:45;;;;;;;4.87;1.20;;;5.50;99.90;;;;;;5016401;28;20209;-65
2024/01/31 07:13:12;;;;;;;2.23;1.10;;;5.40;99.90;;;;;;4993220;28;20265;-65
2024/01/31 07:15:40;;;;;;;3.17;1.00;;;5.50;99.90;;;;;;5031154;28;20221;-65
2024/01/31 07:18:07;;;;;;;2.73;0.70;;;5.40;99.90;;;;;;5027179;28;20299;-66
2024/01/31 07:20:34;;;;;;;6.23;1.00;;;5.50;99.90;;;;;;5041392;28;20227;-65
2024/01/31 07:23:01;;;;;;;3.50;1.00;;;5.40;99.90;;;;;;5033224;28;20243;-65
2024/01/31 07:25:28;;;;;;;4.63;1.00;;;5.40;99.90;;;;;;5027160;28;20211;-66
2024/01/31 07:27:55;;;;;;;6.33;1.20;;;5.40;99.90;;;;;;4978192;28;20316;-65
2024/01/31 07:30:22;;;;;;;5.43;0.93;;;5.40;99.90;;;;;;5039670;28;20194;-65
2024/01/31 07:32:50;;;;;;;5.57;1.07;;;5.40;99.90;;;;;;5026807;28;20203;-66
2024/01/31 07:35:17;;;;;;;1.93;0.63;;;5.40;99.90;;;;;;5038164;28;20200;-65
2024/01/31 07:37:44;;;;;;;7.53;0.97;;;3.90;99.90;;;;;;5033078;28;20233;-65
2024/01/31 07:40:11;;;;;;;3.43;1.07;;;5.50;99.90;;;;;;5019639;28;20859;-65
2024/01/31 07:42:39;;;;;;;4.23;0.73;;;5.40;99.90;;;;;;4995661;28;20210;-66
2024/01/31 07:45:07;;;;;;;3.67;1.00;;;5.40;99.90;;;;;;5023040;28;20750;-65
2024/01/31 07:47:36;;;;;;;3.27;1.10;;;5.40;99.90;;;;;;5023947;28;20208;-65
2024/01/31 07:50:06;;;;;;;2.40;0.73;;;5.40;99.90;;;;;;5030658;28;20639;-65
2024/01/31 07:52:33;;;;;;;2.17;1.00;;;5.50;99.90;;;;;;5038140;28;20426;-65
2024/01/31 07:55:00;;;;;;;1.80;0.80;;;5.50;99.90;;;;;;5034015;28;20196;-66
2024/01/31 07:57:27;;;;;;;2.63;0.93;;;5.40;99.90;;;;;;4991876;28;20735;-65
2024/01/31 07:59:53;;;;;;;1.43;0.60;;;5.40;99.90;;;;;;5026442;28;20889;-66
2024/01/31 08:02:20;;;;;;;2.57;0.70;;;5.50;99.90;;;;;;5027130;28;20520;-65
2024/01/31 08:04:47;;;;;;;4.37;1.03;;;5.40;99.90;;;;;;5044380;28;20200;-66
2024/01/31 08:07:15;;;;;;;8.60;1.20;;;5.40;99.90;;;;;;5034305;28;20819;-66
2024/01/31 08:09:42;;;;;;;2.80;1.10;;;5.40;99.90;;;;;;5040037;28;20197;-66
2024/01/31 08:12:09;;;;;;;5.13;1.43;;;5.40;99.90;;;;;;5026854;28;20200;-65
2024/01/31 08:14:36;;;;;;;2.30;0.77;;;5.40;99.90;;;;;;5001811;28;20231;-65
2024/01/31 08:17:03;;;;;;;2.97;0.80;;;5.40;99.90;;;;;;5031793;28;20252;-66
2024/01/31 08:19:30;;;;;;;3.77;1.10;;;5.40;99.90;;;;;;5029534;28;20351;-65
2024/01/31 08:21:57;;;;;;;3.20;0.70;;;5.40;99.90;;;;;;5042591;28;20195;-65
2024/01/31 08:24:25;;;;;;;6.77;1.90;;;5.40;99.90;;;;;;5038774;28;20552;-65
2024/01/31 08:26:52;;;;;;;4.87;1.20;;;5.40;99.90;;;;;;5026327;28;20248;-65
2024/01/31 08:29:20;;;;;;;3.50;1.00;;;5.40;99.90;;;;;;4987137;28;21756;-65
2024/01/31 08:31:47;;;;;;;3.73;1.20;;;5.40;99.90;;;;;;5027800;28;20215;-64
2024/01/31 08:34:14;;;;;;;6.03;1.27;;;;;;;;;;5019813;28;20577;-65
2024/01/31 08:36:41;;;;;;;2.93;0.80;;;5.50;99.90;;;;;;5030553;28;20219;-64
2024/01/31 08:39:09;;;;;;;4.03;1.20;;;5.40;99.90;;;;;;5031569;28;20236;-65
2024/01/31 08:41:37;;;;;;;5.17;1.10;;;5.30;99.90;;;;;;5033171;28;20221;-65
2024/01/31 08:44:04;;;;;;;6.40;1.20;;;6.60;99.90;;;;;;5006705;28;20232;-65
2024/01/31 08:46:31;;;;;;;2.93;1.53;;;5.50;99.90;;;;;;5011307;28;20769;-65
2024/01/31 08:48:58;;;;;;;3.13;1.00;;;5.50;99.90;;;;;;5011369;28;20250;-65
2024/01/31 08:51:25;;;;;;;9.57;1.67;;;;;;;;;;5016700;28;20511;-65
2024/01/31 08:53:52;;;;;;;5.63;1.67;;;5.50;99.90;;;;;;5033727;28;20201;-65
2024/01/31 08:56:18;;;;;;;1.57;1.10;;;5.50;99.90;;;;;;5026306;28;20205;-65
2024/01/31 08:58:47;;;;;;;5.50;1.67;;;5.50;99.90;;;;;;5021543;28;20228;-66
2024/01/31 09:01:14;;;;;;;7.07;2.00;;;5.50;99.90;;;;;;5002887;28;20775;-65
2024/01/31 09:03:40;;;;;;;4.13;1.80;;;5.50;99.90;;;;;;5025159;28;20354;-65
2024/01/31 09:06:07;;;;;;;3.17;1.50;;;5.50;99.90;;;;;;5017656;28;20567;-65
2024/01/31 09:08:34;;;;;;;5.43;1.30;;;5.50;99.90;;;;;;5031813;28;20205;-65
2024/01/31 09:11:02;;;;;;;3.40;1.13;;;6.40;99.90;;;;;;5027495;28;20341;-64
2024/01/31 09:13:28;;;;;;;4.37;0.97;;;5.60;99.90;;;;;;5029159;28;20231;-65
2024/01/31 09:15:57;;;;;;;2.43;1.20;;;5.60;99.90;;;;;;5001649;28;20436;-65
2024/01/31 09:18:24;;;;;;;3.03;0.97;;;5.60;99.90;;;;;;5034451;28;20210;-65
2024/01/31 09:20:51;;;;;;;2.73;1.13;;;5.60;99.90;;;;;;5006326;28;20437;-65
2024/01/31 09:23:18;;;;;;;1.27;0.70;;;5.60;99.90;;;;;;5032206;28;20741;-65
2024/01/31 09:25:45;;;;;;;2.63;0.73;;;5.60;99.90;;;;;;5032052;28;20219;-65
2024/01/31 09:28:11;;;;;;;4.20;1.03;;;5.60;99.90;;;;;;5028621;28;20192;-65
2024/01/31 09:30:38;;;;;;;2.93;1.20;;;5.60;99.90;;;;;;4985844;28;22572;-66
2024/01/31 09:33:07;;;;;;;1.80;0.83;;;5.60;99.90;;;;;;5024203;28;20219;-65
2024/01/31 09:35:33;;;;;;;3.47;1.53;;;5.60;99.90;;;;;;5017234;28;20199;-65
2024/01/31 09:38:00;;;;;;;6.63;2.33;;;5.60;99.90;;;;;;5020234;28;20925;-65
2024/01/31 09:40:27;;;;;;;3.73;1.50;;;5.60;99.90;;;;;;5032512;28;20673;-65
2024/01/31 09:42:55;;;;;;;4.67;1.60;;;5.60;99.90;;;;;;5026361;28;20204;-64
2024/01/31 09:45:23;;;;;;;4.67;1.47;;;5.70;99.90;;;;;;5029410;28;20576;-65
2024/01/31 09:47:50;;;;;;;7.13;2.40;;;5.60;99.90;;;;;;4992453;28;20516;-64
2024/01/31 09:50:19;;;;;;;3.60;1.30;;;5.70;99.90;;;;;;5028934;28;20242;-65
2024/01/31 09:52:52;;;;;;;9.27;1.83;;;5.70;99.90;;;;;;5010216;28;20664;-64
2024/01/31 09:55:23;;;;;;;5.97;1.50;;;5.70;99.90;;;;;;5035409;28;20197;-64
2024/01/31 09:57:50;;;;;;;4.07;1.70;;;5.70;99.90;;;;;;5037113;28;20200;-64
2024/01/31 10:00:18;;;;;;;8.40;2.87;;;5.70;99.90;;;;;;5036173;28;20237;-64
2024/01/31 10:02:49;;;;;;;6.27;1.60;;;5.60;99.90;;;;;;4985997;28;20361;-65
2024/01/31 10:05:18;;;;;;;3.83;1.43;;;5.20;99.90;;;;;;5032413;28;20218;-65
2024/01/31 10:07:45;;;;;;;4.83;1.40;;;5.70;99.90;;;;;;5025894;28;20216;-65
2024/01/31 10:10:11;;;;;;;3.47;1.67;;;5.70;99.90;;;;;;5034268;28;20201;-64
2024/01/31 10:12:39;;;;;;;6.90;1.20;;;5.70;99.90;;;;;;5039655;28;20200;-65
2024/01/31 10:15:08;;;;;;;6.10;1.50;;;5.70;99.90;;;;;;5025269;28;20799;-64
2024/01/31 10:17:35;;;;;;;3.10;0.90;;;5.30;99.90;;;;;;4987608;28;20223;-65
2024/01/31 10:20:10;;;;;;;2.43;1.20;;;6.00;99.90;;;;;;5005955;28;20274;-64
2024/01/31 10:22:38;;;;;;;3.33;1.03;;;5.90;99.90;;;;;;5018080;28;20235;-65
2024/01/31 10:25:06;;;;;;;2.40;0.93;;;8.60;99.90;;;;;;5012298;28;20806;-65
2024/01/31 10:27:35;;;;;;;3.43;1.10;;;5.90;99.90;;;;;;5031485;28;20219;-65
2024/01/31 10:30:06;;;;;;;2.00;1.03;;;5.90;99.90;;;;;;5017847;28;20258;-65
2024/01/31 10:32:34;;;;;;;1.83;0.87;;;5.90;99.90;;;;;;5014040;28;20200;-65
2024/01/31 10:35:03;;;;;;;2.53;1.43;;;5.90;99.90;;;;;;4985859;28;20243;-65
2024/01/31 10:37:31;;;;;;;1.57;1.03;;;5.90;99.90;;;;;;5000345;28;20198;-65
2024/01/31 10:40:00;;;;;;;1.33;1.00;;;5.80;99.90;;;;;;5028828;28;20258;-65
2024/01/31 10:42:27;;;;;;;3.03;1.20;;;6.00;99.90;;;;;;5014960;28;20208;-65
2024/01/31 10:44:55;;;;;;;2.53;1.00;;;5.90;99.90;;;;;;5030512;28;20668;-65
2024/01/31 10:47:22;;;;;;;4.87;1.23;;;6.00;99.90;;;;;;5036690;28;20206;-65
2024/01/31 10:49:48;;;;;;;2.17;1.20;;;6.00;99.90;;;;;;4986301;28;20212;-65
2024/01/31 10:52:19;;;;;;;5.73;1.30;;;6.00;99.90;;;;;;5039111;28;20233;-65
2024/01/31 10:54:52;;;;;;;5.73;1.13;;;6.00;99.90;;;;;;5020509;28;20359;-64
2024/01/31 10:57:21;;;;;;;4.87;1.27;;;6.00;99.90;;;;;;5022594;28;20231;-65
2024/01/31 10:59:50;;;;;;;1.00;1.00;;;5.90;99.90;;;;;;5018413;28;20234;-65
2024/01/31 11:02:17;;;;;;;2.37;1.27;;;;;;;;;;5030963;28;20201;-64
2024/01/31 11:04:44;;;;;;;3.30;1.53;;;6.00;99.90;;;;;;4985321;28;20232;-64
2024/01/31 11:07:17;;;;;;;3.50;1.47;;;6.00;99.90;;;;;;5031461;28;20217;-65
2024/01/31 11:09:44;;;;;;;4.00;1.70;;;6.00;99.90;;;;;;5017371;28;20614;-64
2024/01/31 11:12:13;;;;;;;7.33;1.80;;;6.00;99.90;;;;;;5022214;28;20259;-64
2024/01/31 11:14:43;;;;;;;4.47;2.60;;;6.00;99.90;;;;;;5023442;28;20225;-65
2024/01/31 11:17:11;;;;;;;4.23;2.47;;;6.00;99.90;;;;;;5025656;28;20332;-65
2024/01/31 11:19:42;;;;;;;4.70;2.70;;;6.10;99.90;;;;;;5000344;28;20554;-65
2024/01/31 11:22:10;;;;;;;5.13;3.07;;;6.10;99.90;;;;;;4999840;28;20220;-64
2024/01/31 11:24:40;;;;;;;5.53;2.47;;;6.00;99.90;;;;;;5016869;28;20631;-64
2024/01/31 11:27:07;;;;;;;4.73;2.83;;;6.00;99.90;;;;;;5032572;28;20212;-64
2024/01/31 11:29:34;;;;;;;2.47;2.17;;;6.00;99.90;;;;;;5023791;28;20261;-64
2024/01/31 11:32:03;;;;;;;5.10;2.90;;;6.50;99.90;;;;;;5023838;28;20217;-64
2024/01/31 11:34:30;;;;;;;5.70;2.63;;;6.00;99.90;;;;;;5024360;28;20219;-65
2024/01/31 11:36:57;;;;;;;5.10;2.40;;;6.20;99.90;;;;;;5006895;28;20215;-64
2024/01/31 11:39:24;;;;;;;3.60;1.90;;;6.10;99.90;;;;;;5020353;28;20201;-64
2024/01/31 11:41:52;;;;;;;3.73;1.90;;;6.10;99.90;;;;;;5029109;28;20197;-64
2024/01/31 11:44:19;;;;;;;2.83;1.67;;;6.10;99.90;;;;;;5020037;28;20232;-65
2024/01/31 11:46:46;;;;;;;2.70;1.97;;;6.10;99.90;;;;;;5036500;28;20197;-64
2024/01/31 11:49:14;;;;;;;5.47;1.90;;;6.10;99.90;;;;;;5026796;28;20223;-64
2024/01/31 11:51:41;;;;;;;2.07;1.87;;;6.10;99.90;;;;;;4991865;28;20266;-64
2024/01/31 11:54:08;;;;;;;6.30;1.80;;;6.10;99.90;;;;;;5016665;28;20429;-64
2024/01/31 11:56:35;;;;;;;3.17;1.83;;;6.10;99.90;;;;;;5036161;28;20221;-64
2024/01/31 11:59:03;;;;;;;3.57;1.73;;;;;;;;;;5035498;28;20201;-64
2024/01/31 12:01:31;;;;;;;8.70;2.07;;;6.10;99.90;;;;;;5024825;28;20232;-64
2024/01/31 12:03:58;;;;;;;2.67;1.50;;;6.10;99.90;;;;;;5034430;28;20491;-64
2024/01/31 12:06:26;;;;;;;4.87;2.17;;;6.10;99.90;;;;;;4987558;28;20609;-64
2024/01/31 12:08:54;;;;;;;3.97;1.60;;;6.10;99.90;;;;;;5031829;28;20201;-64
2024/01/31 12:11:21;;;;;;;5.57;1.70;;;6.10;99.90;;;;;;5010065;28;20274;-64
2024/01/31 12:13:49;;;;;;;5.17;1.73;;;6.10;99.90;;;;;;5028965;28;20208;-64
2024/01/31 12:16:16;;;;;;;6.10;1.93;;;6.20;99.90;;;;;;5018198;28;20196;-65
2024/01/31 12:18:43;;;;;;;3.73;1.80;;;6.10;99.90;;;;;;5030845;28;20229;-64
2024/01/31 12:21:11;;;;;;;2.27;1.47;;;6.20;99.90;;;;;;5012683;28;20491;-64
2024/01/31 12:23:39;;;;;;;9.30;2.20;;;6.20;99.90;;;;;;4995772;28;20228;-64
2024/01/31 12:26:07;;;;;;;2.67;1.90;;;6.20;99.90;;;;;;5023407;28;20208;-64
2024/01/31 12:28:34;;;;;;;3.27;2.17;;;6.20;99.90;;;;;;5036023;28;20463;-64
2024/01/31 12:31:00;;;;;;;2.30;1.70;;;6.20;99.90;;;;;;5013009;28;20680;-64
2024/01/31 12:33:27;;;;;;;4.80;1.90;;;6.20;99.90;;;;;;5030262;28;20201;-64
2024/01/31 12:35:54;;;;;;;5.00;1.90;;;6.20;99.90;;;;;;5028665;28;20237;-64
2024/01/31 12:38:21;;;;;;;2.97;1.43;;;6.20;99.90;;;;;;4980292;28;20725;-64
2024/01/31 12:40:51;;;;;;;3.33;1.73;;;6.20;99.90;;;;;;5013009;28;20240;-65
2024/01/31 12:43:20;;;;;;;2.00;1.80;;;5.70;99.90;;;;;;5026876;28;20205;-64
2024/01/31 12:45:47;;;;;;;2.43;1.80;;;6.30;99.90;;;;;;5027138;28;20243;-64
2024/01/31 12:48:14;;;;;;;5.57;2.00;;;6.30;99.90;;;;;;5009083;28;20196;-64
2024/01/31 12:50:41;;;;;;;3.63;1.80;;;6.20;99.90;;;;;;5022489;28;20228;-64
2024/01/31 12:53:07;;;;;;;3.80;1.90;;;6.30;99.90;;;;;;4980123;28;20783;-64
2024/01/31 12:55:34;;;;;;;4.53;2.20;;;6.30;99.90;;;;;;5026646;28;20205;-64
2024/01/31 12:58:03;;;;;;;3.53;2.53;;;6.20;99.90;;;;;;5005478;28;20512;-64